sensor_id;sensor_type;location;lat;lon;timestamp;P1;durP1;ratioP1;P2;durP2;ratioP2
73456;SDS011;61691;53.072;6.582;2023-04-25T00:00:16;27.75;;;5.20;;
73456;SDS011;61691;53.072;6.582;2023-04-25T00:02:43;22.02;;;4.28;;
73456;SDS011;61691;53.072;6.582;2023-04-25T00:05:10;24.13;;;4.63;;
73456;SDS011;61691;53.072;6.582;2023-04-25T00:07:37;25.30;;;4.65;;
73456;SDS011;61691;53.072;6.582;2023-04-25T00:10:04;25.08;;;4.20;;
73456;SDS011;61691;53.072;6.582;2023-04-25T00:12:32;22.17;;;4.72;;
73456;SDS011;61691;53.072;6.582;2023-04-25T00:15:00;23.88;;;4.10;;
73456;SDS011;61691;53.072;6.582;2023-04-25T00:17:27;18.52;;;3.88;;
73456;SDS011;61691;53.072;6.582;2023-04-25T00:19:54;20.80;;;3.55;;
73456;SDS011;61691;53.072;6.582;2023-04-25T00:22:21;24.65;;;4.78;;
73456;SDS011;61691;53.072;6.582;2023-04-25T00:24:47;26.83;;;3.92;;
73456;SDS011;61691;53.072;6.582;2023-04-25T00:27:14;26.08;;;4.50;;
73456;SDS011;61691;53.072;6.582;2023-04-25T00:29:41;25.58;;;5.15;;
73456;SDS011;61691;53.072;6.582;2023-04-25T00:32:08;25.77;;;5.28;;
73456;SDS011;61691;53.072;6.582;2023-04-25T00:34:34;20.17;;;4.00;;
73456;SDS011;61691;53.072;6.582;2023-04-25T00:37:01;23.90;;;4.05;;
73456;SDS011;61691;53.072;6.582;2023-04-25T00:39:28;23.17;;;4.22;;
73456;SDS011;61691;53.072;6.582;2023-04-25T00:41:55;29.08;;;5.38;;
73456;SDS011;61691;53.072;6.582;2023-04-25T00:44:22;27.10;;;4.40;;
73456;SDS011;61691;53.072;6.582;2023-04-25T00:46:50;25.30;;;4.00;;
73456;SDS011;61691;53.072;6.582;2023-04-25T00:49:18;29.13;;;4.70;;
73456;SDS011;61691;53.072;6.582;2023-04-25T00:51:45;26.95;;;5.50;;
73456;SDS011;61691;53.072;6.582;2023-04-25T00:54:14;24.77;;;4.40;;
73456;SDS011;61691;53.072;6.582;2023-04-25T00:56:41;24.45;;;4.78;;
73456;SDS011;61691;53.072;6.582;2023-04-25T00:59:09;22.50;;;4.40;;
73456;SDS011;61691;53.072;6.582;2023-04-25T01:01:36;25.52;;;4.10;;
73456;SDS011;61691;53.072;6.582;2023-04-25T01:04:04;26.95;;;4.25;;
73456;SDS011;61691;53.072;6.582;2023-04-25T01:06:31;22.88;;;3.97;;
73456;SDS011;61691;53.072;6.582;2023-04-25T01:08:59;22.38;;;3.80;;
73456;SDS011;61691;53.072;6.582;2023-04-25T01:11:25;22.15;;;4.20;;
73456;SDS011;61691;53.072;6.582;2023-04-25T01:13:52;25.98;;;3.72;;
73456;SDS011;61691;53.072;6.582;2023-04-25T01:16:19;23.92;;;3.70;;
73456;SDS011;61691;53.072;6.582;2023-04-25T01:18:46;21.02;;;3.70;;
73456;SDS011;61691;53.072;6.582;2023-04-25T01:21:14;18.30;;;3.10;;
73456;SDS011;61691;53.072;6.582;2023-04-25T01:23:41;19.67;;;3.20;;
73456;SDS011;61691;53.072;6.582;2023-04-25T01:26:09;23.52;;;3.35;;
73456;SDS011;61691;53.072;6.582;2023-04-25T01:28:37;21.45;;;3.60;;
73456;SDS011;61691;53.072;6.582;2023-04-25T01:31:08;19.58;;;3.70;;
73456;SDS011;61691;53.072;6.582;2023-04-25T01:33:35;20.95;;;3.05;;
73456;SDS011;61691;53.072;6.582;2023-04-25T01:36:02;17.40;;;3.13;;
73456;SDS011;61691;53.072;6.582;2023-04-25T01:38:29;21.65;;;3.65;;
73456;SDS011;61691;53.072;6.582;2023-04-25T01:40:56;20.25;;;3.30;;
73456;SDS011;61691;53.072;6.582;2023-04-25T01:43:23;21.20;;;3.40;;
73456;SDS011;61691;53.072;6.582;2023-04-25T01:45:50;17.63;;;3.00;;
73456;SDS011;61691;53.072;6.582;2023-04-25T01:48:17;23.15;;;3.72;;
73456;SDS011;61691;53.072;6.582;2023-04-25T01:50:45;20.58;;;3.13;;
73456;SDS011;61691;53.072;6.582;2023-04-25T01:53:12;23.23;;;3.65;;
73456;SDS011;61691;53.072;6.582;2023-04-25T01:55:40;19.25;;;3.05;;
73456;SDS011;61691;53.072;6.582;2023-04-25T01:58:06;13.27;;;2.88;;
73456;SDS011;61691;53.072;6.582;2023-04-25T02:00:36;19.38;;;3.28;;
73456;SDS011;61691;53.072;6.582;2023-04-25T02:03:07;14.90;;;2.83;;
73456;SDS011;61691;53.072;6.582;2023-04-25T02:05:35;20.52;;;3.58;;
73456;SDS011;61691;53.072;6.582;2023-04-25T02:08:06;20.27;;;3.20;;
73456;SDS011;61691;53.072;6.582;2023-04-25T02:10:35;23.13;;;3.42;;
73456;SDS011;61691;53.072;6.582;2023-04-25T02:13:02;16.15;;;2.97;;
73456;SDS011;61691;53.072;6.582;2023-04-25T02:15:30;21.08;;;3.30;;
73456;SDS011;61691;53.072;6.582;2023-04-25T02:17:57;18.55;;;3.17;;
73456;SDS011;61691;53.072;6.582;2023-04-25T02:20:26;20.67;;;3.25;;
73456;SDS011;61691;53.072;6.582;2023-04-25T02:22:54;21.17;;;3.38;;
73456;SDS011;61691;53.072;6.582;2023-04-25T02:25:21;20.23;;;3.47;;
73456;SDS011;61691;53.072;6.582;2023-04-25T02:27:48;23.23;;;3.75;;
73456;SDS011;61691;53.072;6.582;2023-04-25T02:30:15;21.52;;;3.25;;
73456;SDS011;61691;53.072;6.582;2023-04-25T02:32:42;20.67;;;3.63;;
73456;SDS011;61691;53.072;6.582;2023-04-25T02:35:09;21.55;;;3.08;;
73456;SDS011;61691;53.072;6.582;2023-04-25T02:37:36;19.90;;;3.55;;
73456;SDS011;61691;53.072;6.582;2023-04-25T02:40:04;21.17;;;3.35;;
73456;SDS011;61691;53.072;6.582;2023-04-25T02:42:31;20.58;;;3.20;;
73456;SDS011;61691;53.072;6.582;2023-04-25T02:44:58;23.73;;;4.20;;
73456;SDS011;61691;53.072;6.582;2023-04-25T02:47:25;18.23;;;3.13;;
73456;SDS011;61691;53.072;6.582;2023-04-25T02:49:52;20.45;;;3.95;;
73456;SDS011;61691;53.072;6.582;2023-04-25T02:52:18;23.42;;;3.67;;
73456;SDS011;61691;53.072;6.582;2023-04-25T02:54:45;15.70;;;2.97;;
73456;SDS011;61691;53.072;6.582;2023-04-25T02:57:12;21.98;;;3.10;;
73456;SDS011;61691;53.072;6.582;2023-04-25T02:59:38;19.67;;;3.03;;
73456;SDS011;61691;53.072;6.582;2023-04-25T03:02:05;23.92;;;3.30;;
73456;SDS011;61691;53.072;6.582;2023-04-25T03:04:32;20.23;;;3.50;;
73456;SDS011;61691;53.072;6.582;2023-04-25T03:06:59;20.63;;;3.25;;
73456;SDS011;61691;53.072;6.582;2023-04-25T03:09:27;20.73;;;3.65;;
73456;SDS011;61691;53.072;6.582;2023-04-25T03:11:53;17.60;;;2.83;;
73456;SDS011;61691;53.072;6.582;2023-04-25T03:14:20;19.27;;;3.33;;
73456;SDS011;61691;53.072;6.582;2023-04-25T03:16:47;21.02;;;3.20;;
73456;SDS011;61691;53.072;6.582;2023-04-25T03:19:13;18.15;;;3.45;;
73456;SDS011;61691;53.072;6.582;2023-04-25T03:21:42;18.88;;;3.00;;
73456;SDS011;61691;53.072;6.582;2023-04-25T03:24:09;20.52;;;3.13;;
73456;SDS011;61691;53.072;6.582;2023-04-25T03:26:37;18.15;;;3.25;;
73456;SDS011;61691;53.072;6.582;2023-04-25T03:29:03;22.83;;;3.30;;
73456;SDS011;61691;53.072;6.582;2023-04-25T03:31:30;16.08;;;2.95;;
73456;SDS011;61691;53.072;6.582;2023-04-25T03:33:57;19.23;;;3.13;;
73456;SDS011;61691;53.072;6.582;2023-04-25T03:36:24;17.55;;;2.63;;
73456;SDS011;61691;53.072;6.582;2023-04-25T03:38:51;23.30;;;3.20;;
73456;SDS011;61691;53.072;6.582;2023-04-25T03:41:17;25.30;;;3.70;;
73456;SDS011;61691;53.072;6.582;2023-04-25T03:43:44;17.90;;;2.78;;
73456;SDS011;61691;53.072;6.582;2023-04-25T03:46:11;21.50;;;3.08;;
73456;SDS011;61691;53.072;6.582;2023-04-25T03:48:38;16.50;;;3.00;;
73456;SDS011;61691;53.072;6.582;2023-04-25T03:51:04;20.00;;;3.22;;
73456;SDS011;61691;53.072;6.582;2023-04-25T03:53:31;19.65;;;3.05;;
73456;SDS011;61691;53.072;6.582;2023-04-25T03:55:58;17.70;;;3.35;;
73456;SDS011;61691;53.072;6.582;2023-04-25T03:58:25;17.25;;;2.78;;
73456;SDS011;61691;53.072;6.582;2023-04-25T04:00:52;15.10;;;2.47;;
73456;SDS011;61691;53.072;6.582;2023-04-25T04:03:18;17.38;;;2.35;;
73456;SDS011;61691;53.072;6.582;2023-04-25T04:05:45;19.10;;;3.15;;
73456;SDS011;61691;53.072;6.582;2023-04-25T04:08:13;17.20;;;3.10;;
73456;SDS011;61691;53.072;6.582;2023-04-25T04:10:39;20.52;;;3.45;;
73456;SDS011;61691;53.072;6.582;2023-04-25T04:13:06;15.82;;;2.67;;
73456;SDS011;61691;53.072;6.582;2023-04-25T04:15:33;16.48;;;3.13;;
73456;SDS011;61691;53.072;6.582;2023-04-25T04:18:00;13.15;;;2.83;;
73456;SDS011;61691;53.072;6.582;2023-04-25T04:20:29;20.77;;;3.13;;
73456;SDS011;61691;53.072;6.582;2023-04-25T04:22:58;16.10;;;2.47;;
73456;SDS011;61691;53.072;6.582;2023-04-25T04:25:25;22.88;;;3.65;;
73456;SDS011;61691;53.072;6.582;2023-04-25T04:27:52;18.60;;;2.90;;
73456;SDS011;61691;53.072;6.582;2023-04-25T04:30:21;17.77;;;2.83;;
73456;SDS011;61691;53.072;6.582;2023-04-25T04:32:51;22.15;;;3.35;;
73456;SDS011;61691;53.072;6.582;2023-04-25T04:35:18;17.05;;;2.53;;
73456;SDS011;61691;53.072;6.582;2023-04-25T04:37:45;17.90;;;2.47;;
73456;SDS011;61691;53.072;6.582;2023-04-25T04:40:13;15.18;;;3.00;;
73456;SDS011;61691;53.072;6.582;2023-04-25T04:42:42;17.60;;;3.10;;
73456;SDS011;61691;53.072;6.582;2023-04-25T04:45:11;17.00;;;2.67;;
73456;SDS011;61691;53.072;6.582;2023-04-25T04:47:38;15.85;;;3.00;;
73456;SDS011;61691;53.072;6.582;2023-04-25T04:50:06;17.52;;;3.20;;
73456;SDS011;61691;53.072;6.582;2023-04-25T04:52:36;14.80;;;2.40;;
73456;SDS011;61691;53.072;6.582;2023-04-25T04:55:04;16.10;;;2.80;;
73456;SDS011;61691;53.072;6.582;2023-04-25T04:57:32;17.58;;;2.58;;
73456;SDS011;61691;53.072;6.582;2023-04-25T04:59:59;15.35;;;2.97;;
73456;SDS011;61691;53.072;6.582;2023-04-25T05:02:26;18.20;;;3.03;;
73456;SDS011;61691;53.072;6.582;2023-04-25T05:04:53;14.75;;;2.53;;
73456;SDS011;61691;53.072;6.582;2023-04-25T05:07:20;19.75;;;2.60;;
73456;SDS011;61691;53.072;6.582;2023-04-25T05:09:46;18.55;;;2.88;;
73456;SDS011;61691;53.072;6.582;2023-04-25T05:12:13;16.02;;;2.40;;
73456;SDS011;61691;53.072;6.582;2023-04-25T05:14:40;15.77;;;2.70;;
73456;SDS011;61691;53.072;6.582;2023-04-25T05:17:06;16.80;;;3.20;;
73456;SDS011;61691;53.072;6.582;2023-04-25T05:19:34;17.63;;;2.53;;
73456;SDS011;61691;53.072;6.582;2023-04-25T05:22:02;19.58;;;2.75;;
73456;SDS011;61691;53.072;6.582;2023-04-25T05:24:29;14.27;;;2.22;;
73456;SDS011;61691;53.072;6.582;2023-04-25T05:26:56;17.83;;;2.60;;
73456;SDS011;61691;53.072;6.582;2023-04-25T05:29:23;19.17;;;2.60;;
73456;SDS011;61691;53.072;6.582;2023-04-25T05:31:50;17.08;;;2.50;;
73456;SDS011;61691;53.072;6.582;2023-04-25T05:34:17;15.00;;;2.65;;
73456;SDS011;61691;53.072;6.582;2023-04-25T05:36:43;16.02;;;2.50;;
73456;SDS011;61691;53.072;6.582;2023-04-25T05:39:10;17.50;;;2.60;;
73456;SDS011;61691;53.072;6.582;2023-04-25T05:41:37;17.13;;;2.65;;
73456;SDS011;61691;53.072;6.582;2023-04-25T05:44:04;22.70;;;3.25;;
73456;SDS011;61691;53.072;6.582;2023-04-25T05:46:31;18.55;;;3.53;;
73456;SDS011;61691;53.072;6.582;2023-04-25T05:48:58;20.00;;;3.00;;
73456;SDS011;61691;53.072;6.582;2023-04-25T05:51:25;18.30;;;3.40;;
73456;SDS011;61691;53.072;6.582;2023-04-25T05:53:52;14.10;;;2.38;;
73456;SDS011;61691;53.072;6.582;2023-04-25T05:56:19;16.95;;;2.92;;
73456;SDS011;61691;53.072;6.582;2023-04-25T05:58:46;17.60;;;3.00;;
73456;SDS011;61691;53.072;6.582;2023-04-25T06:01:13;15.68;;;2.45;;
73456;SDS011;61691;53.072;6.582;2023-04-25T06:03:40;15.85;;;2.78;;
73456;SDS011;61691;53.072;6.582;2023-04-25T06:06:09;13.70;;;2.22;;
73456;SDS011;61691;53.072;6.582;2023-04-25T06:08:36;13.80;;;2.55;;
73456;SDS011;61691;53.072;6.582;2023-04-25T06:11:04;14.68;;;2.47;;
73456;SDS011;61691;53.072;6.582;2023-04-25T06:13:31;16.17;;;2.83;;
73456;SDS011;61691;53.072;6.582;2023-04-25T06:15:58;18.15;;;2.78;;
73456;SDS011;61691;53.072;6.582;2023-04-25T06:18:24;18.17;;;2.95;;
73456;SDS011;61691;53.072;6.582;2023-04-25T06:20:51;16.60;;;2.60;;
73456;SDS011;61691;53.072;6.582;2023-04-25T06:23:18;19.42;;;2.70;;
73456;SDS011;61691;53.072;6.582;2023-04-25T06:25:44;17.02;;;2.72;;
73456;SDS011;61691;53.072;6.582;2023-04-25T06:28:11;16.50;;;2.53;;
73456;SDS011;61691;53.072;6.582;2023-04-25T06:30:38;18.63;;;2.88;;
73456;SDS011;61691;53.072;6.582;2023-04-25T06:33:04;18.08;;;2.55;;
73456;SDS011;61691;53.072;6.582;2023-04-25T06:35:31;18.05;;;2.60;;
73456;SDS011;61691;53.072;6.582;2023-04-25T06:37:58;14.63;;;2.55;;
73456;SDS011;61691;53.072;6.582;2023-04-25T06:40:25;18.80;;;3.13;;
73456;SDS011;61691;53.072;6.582;2023-04-25T06:42:51;15.93;;;2.80;;
73456;SDS011;61691;53.072;6.582;2023-04-25T06:45:18;19.13;;;2.72;;
73456;SDS011;61691;53.072;6.582;2023-04-25T06:47:45;14.52;;;2.47;;
73456;SDS011;61691;53.072;6.582;2023-04-25T06:50:11;15.25;;;2.42;;
73456;SDS011;61691;53.072;6.582;2023-04-25T06:52:38;19.23;;;2.65;;
73456;SDS011;61691;53.072;6.582;2023-04-25T06:55:05;16.13;;;2.47;;
73456;SDS011;61691;53.072;6.582;2023-04-25T06:57:32;17.45;;;2.30;;
73456;SDS011;61691;53.072;6.582;2023-04-25T06:59:59;18.27;;;2.38;;
73456;SDS011;61691;53.072;6.582;2023-04-25T07:02:27;15.73;;;2.40;;
73456;SDS011;61691;53.072;6.582;2023-04-25T07:04:55;13.88;;;2.13;;
73456;SDS011;61691;53.072;6.582;2023-04-25T07:07:26;13.27;;;2.30;;
73456;SDS011;61691;53.072;6.582;2023-04-25T07:09:53;16.08;;;2.50;;
73456;SDS011;61691;53.072;6.582;2023-04-25T07:12:19;14.43;;;2.40;;
73456;SDS011;61691;53.072;6.582;2023-04-25T07:14:46;13.07;;;2.10;;
73456;SDS011;61691;53.072;6.582;2023-04-25T07:17:13;13.15;;;2.17;;
73456;SDS011;61691;53.072;6.582;2023-04-25T07:19:40;14.27;;;2.40;;
73456;SDS011;61691;53.072;6.582;2023-04-25T07:22:06;16.73;;;2.28;;
73456;SDS011;61691;53.072;6.582;2023-04-25T07:24:33;12.38;;;2.08;;
73456;SDS011;61691;53.072;6.582;2023-04-25T07:27:00;11.38;;;2.22;;
73456;SDS011;61691;53.072;6.582;2023-04-25T07:29:27;17.10;;;2.10;;
73456;SDS011;61691;53.072;6.582;2023-04-25T07:31:54;12.55;;;2.17;;
73456;SDS011;61691;53.072;6.582;2023-04-25T07:34:21;11.77;;;2.53;;
73456;SDS011;61691;53.072;6.582;2023-04-25T07:36:47;10.75;;;1.90;;
73456;SDS011;61691;53.072;6.582;2023-04-25T07:39:14;12.15;;;1.73;;
73456;SDS011;61691;53.072;6.582;2023-04-25T07:41:41;13.77;;;2.00;;
73456;SDS011;61691;53.072;6.582;2023-04-25T07:44:08;13.35;;;1.90;;
73456;SDS011;61691;53.072;6.582;2023-04-25T07:46:34;14.70;;;2.30;;
73456;SDS011;61691;53.072;6.582;2023-04-25T07:49:01;12.45;;;2.22;;
73456;SDS011;61691;53.072;6.582;2023-04-25T07:51:28;14.18;;;2.17;;
73456;SDS011;61691;53.072;6.582;2023-04-25T07:53:55;11.98;;;2.10;;
73456;SDS011;61691;53.072;6.582;2023-04-25T07:56:22;15.63;;;2.42;;
73456;SDS011;61691;53.072;6.582;2023-04-25T07:58:49;12.25;;;2.30;;
73456;SDS011;61691;53.072;6.582;2023-04-25T08:01:16;20.02;;;2.55;;
73456;SDS011;61691;53.072;6.582;2023-04-25T08:03:43;14.40;;;2.30;;
73456;SDS011;61691;53.072;6.582;2023-04-25T08:06:10;16.75;;;2.25;;
73456;SDS011;61691;53.072;6.582;2023-04-25T08:08:37;17.20;;;2.20;;
73456;SDS011;61691;53.072;6.582;2023-04-25T08:11:04;13.75;;;2.05;;
73456;SDS011;61691;53.072;6.582;2023-04-25T08:13:31;13.00;;;2.30;;
73456;SDS011;61691;53.072;6.582;2023-04-25T08:15:57;12.50;;;2.10;;
73456;SDS011;61691;53.072;6.582;2023-04-25T08:18:24;15.80;;;2.33;;
73456;SDS011;61691;53.072;6.582;2023-04-25T08:20:51;13.70;;;2.45;;
73456;SDS011;61691;53.072;6.582;2023-04-25T08:23:17;13.40;;;2.28;;
73456;SDS011;61691;53.072;6.582;2023-04-25T08:25:44;13.52;;;1.90;;
73456;SDS011;61691;53.072;6.582;2023-04-25T08:28:11;13.52;;;2.00;;
73456;SDS011;61691;53.072;6.582;2023-04-25T08:30:37;16.20;;;2.00;;
73456;SDS011;61691;53.072;6.582;2023-04-25T08:33:04;13.95;;;2.00;;
73456;SDS011;61691;53.072;6.582;2023-04-25T08:35:31;6.10;;;1.30;;
73456;SDS011;61691;53.072;6.582;2023-04-25T08:37:59;9.68;;;1.65;;
73456;SDS011;61691;53.072;6.582;2023-04-25T08:40:27;8.00;;;1.55;;
73456;SDS011;61691;53.072;6.582;2023-04-25T08:42:56;8.65;;;1.50;;
73456;SDS011;61691;53.072;6.582;2023-04-25T08:45:25;6.18;;;1.40;;
73456;SDS011;61691;53.072;6.582;2023-04-25T08:47:54;11.10;;;1.50;;
73456;SDS011;61691;53.072;6.582;2023-04-25T08:50:23;9.18;;;1.80;;
73456;SDS011;61691;53.072;6.582;2023-04-25T08:52:53;6.95;;;1.45;;
73456;SDS011;61691;53.072;6.582;2023-04-25T08:55:21;8.95;;;2.03;;
73456;SDS011;61691;53.072;6.582;2023-04-25T08:57:48;8.27;;;1.42;;
73456;SDS011;61691;53.072;6.582;2023-04-25T09:00:16;6.50;;;1.45;;
73456;SDS011;61691;53.072;6.582;2023-04-25T09:02:44;9.85;;;1.80;;
73456;SDS011;61691;53.072;6.582;2023-04-25T09:05:13;12.45;;;2.08;;
73456;SDS011;61691;53.072;6.582;2023-04-25T09:07:40;9.32;;;1.75;;
73456;SDS011;61691;53.072;6.582;2023-04-25T09:10:07;7.63;;;1.63;;
73456;SDS011;61691;53.072;6.582;2023-04-25T09:12:35;10.02;;;1.83;;
73456;SDS011;61691;53.072;6.582;2023-04-25T09:17:33;11.05;;;1.85;;
73456;SDS011;61691;53.072;6.582;2023-04-25T09:20:10;8.27;;;1.65;;
73456;SDS011;61691;53.072;6.582;2023-04-25T09:22:39;9.75;;;1.73;;
73456;SDS011;61691;53.072;6.582;2023-04-25T09:25:10;6.43;;;1.60;;
73456;SDS011;61691;53.072;6.582;2023-04-25T09:27:51;8.57;;;1.73;;
73456;SDS011;61691;53.072;6.582;2023-04-25T09:33:08;11.00;;;1.75;;
73456;SDS011;61691;53.072;6.582;2023-04-25T09:35:37;9.05;;;1.60;;
73456;SDS011;61691;53.072;6.582;2023-04-25T09:38:13;16.02;;;2.10;;
73456;SDS011;61691;53.072;6.582;2023-04-25T09:40:42;14.32;;;2.50;;
73456;SDS011;61691;53.072;6.582;2023-04-25T09:43:24;13.10;;;2.00;;
73456;SDS011;61691;53.072;6.582;2023-04-25T09:45:53;14.55;;;2.03;;
73456;SDS011;61691;53.072;6.582;2023-04-25T09:48:24;15.00;;;2.30;;
73456;SDS011;61691;53.072;6.582;2023-04-25T09:53:36;17.77;;;2.30;;
73456;SDS011;61691;53.072;6.582;2023-04-25T09:56:06;9.80;;;2.03;;
73456;SDS011;61691;53.072;6.582;2023-04-25T09:58:34;12.13;;;2.00;;
73456;SDS011;61691;53.072;6.582;2023-04-25T10:01:04;13.45;;;2.35;;
73456;SDS011;61691;53.072;6.582;2023-04-25T10:03:33;12.98;;;2.05;;
73456;SDS011;61691;53.072;6.582;2023-04-25T10:06:07;14.13;;;2.25;;
73456;SDS011;61691;53.072;6.582;2023-04-25T10:08:35;15.75;;;2.20;;
73456;SDS011;61691;53.072;6.582;2023-04-25T10:11:03;17.33;;;2.70;;
73456;SDS011;61691;53.072;6.582;2023-04-25T10:13:32;15.40;;;2.38;;
73456;SDS011;61691;53.072;6.582;2023-04-25T10:16:00;19.08;;;2.22;;
73456;SDS011;61691;53.072;6.582;2023-04-25T10:18:29;12.60;;;2.28;;
73456;SDS011;61691;53.072;6.582;2023-04-25T10:20:57;14.40;;;1.80;;
73456;SDS011;61691;53.072;6.582;2023-04-25T10:23:26;13.40;;;2.10;;
73456;SDS011;61691;53.072;6.582;2023-04-25T10:25:55;15.07;;;2.13;;
73456;SDS011;61691;53.072;6.582;2023-04-25T10:28:22;13.10;;;2.20;;
73456;SDS011;61691;53.072;6.582;2023-04-25T10:30:59;12.20;;;2.13;;
73456;SDS011;61691;53.072;6.582;2023-04-25T10:33:33;11.88;;;2.22;;
73456;SDS011;61691;53.072;6.582;2023-04-25T10:36:11;13.40;;;2.50;;
73456;SDS011;61691;53.072;6.582;2023-04-25T10:38:39;11.27;;;1.77;;
73456;SDS011;61691;53.072;6.582;2023-04-25T10:41:08;13.70;;;2.38;;
73456;SDS011;61691;53.072;6.582;2023-04-25T10:46:23;14.13;;;2.00;;
73456;SDS011;61691;53.072;6.582;2023-04-25T10:48:52;12.18;;;2.10;;
73456;SDS011;61691;53.072;6.582;2023-04-25T10:51:22;14.95;;;2.30;;
73456;SDS011;61691;53.072;6.582;2023-04-25T10:54:01;20.77;;;2.33;;
73456;SDS011;61691;53.072;6.582;2023-04-25T10:56:33;13.98;;;2.65;;
73456;SDS011;61691;53.072;6.582;2023-04-25T10:59:12;17.45;;;2.50;;
73456;SDS011;61691;53.072;6.582;2023-04-25T11:10:04;17.10;;;2.25;;
73456;SDS011;61691;53.072;6.582;2023-04-25T11:12:31;14.30;;;2.35;;
73456;SDS011;61691;53.072;6.582;2023-04-25T11:14:59;15.48;;;2.17;;
73456;SDS011;61691;53.072;6.582;2023-04-25T11:17:33;17.33;;;2.38;;
73456;SDS011;61691;53.072;6.582;2023-04-25T11:20:01;14.50;;;2.20;;
73456;SDS011;61691;53.072;6.582;2023-04-25T11:22:27;13.70;;;2.67;;
73456;SDS011;61691;53.072;6.582;2023-04-25T11:24:55;17.35;;;2.53;;
73456;SDS011;61691;53.072;6.582;2023-04-25T11:27:21;14.00;;;2.13;;
73456;SDS011;61691;53.072;6.582;2023-04-25T11:29:48;14.88;;;2.42;;
73456;SDS011;61691;53.072;6.582;2023-04-25T11:32:15;16.80;;;2.55;;
73456;SDS011;61691;53.072;6.582;2023-04-25T11:34:46;12.75;;;2.10;;
73456;SDS011;61691;53.072;6.582;2023-04-25T11:37:13;13.48;;;2.83;;
73456;SDS011;61691;53.072;6.582;2023-04-25T11:39:44;17.80;;;2.40;;
73456;SDS011;61691;53.072;6.582;2023-04-25T11:42:12;14.30;;;2.13;;
73456;SDS011;61691;53.072;6.582;2023-04-25T11:44:39;12.57;;;1.98;;
73456;SDS011;61691;53.072;6.582;2023-04-25T11:47:07;13.48;;;1.92;;
73456;SDS011;61691;53.072;6.582;2023-04-25T11:49:33;14.82;;;2.10;;
73456;SDS011;61691;53.072;6.582;2023-04-25T11:52:01;14.10;;;2.05;;
73456;SDS011;61691;53.072;6.582;2023-04-25T11:54:29;13.73;;;2.00;;
73456;SDS011;61691;53.072;6.582;2023-04-25T11:56:55;14.30;;;2.35;;
73456;SDS011;61691;53.072;6.582;2023-04-25T11:59:23;10.88;;;2.00;;
73456;SDS011;61691;53.072;6.582;2023-04-25T12:01:51;12.23;;;1.77;;
73456;SDS011;61691;53.072;6.582;2023-04-25T12:04:19;11.98;;;1.98;;
73456;SDS011;61691;53.072;6.582;2023-04-25T12:06:52;13.95;;;2.20;;
73456;SDS011;61691;53.072;6.582;2023-04-25T12:09:30;16.45;;;1.98;;
73456;SDS011;61691;53.072;6.582;2023-04-25T12:11:59;13.18;;;2.13;;
73456;SDS011;61691;53.072;6.582;2023-04-25T12:14:30;13.05;;;2.22;;
73456;SDS011;61691;53.072;6.582;2023-04-25T12:16:59;12.20;;;1.90;;
73456;SDS011;61691;53.072;6.582;2023-04-25T12:19:31;14.50;;;2.30;;
73456;SDS011;61691;53.072;6.582;2023-04-25T12:22:00;15.05;;;1.90;;
73456;SDS011;61691;53.072;6.582;2023-04-25T12:24:27;11.57;;;1.90;;
73456;SDS011;61691;53.072;6.582;2023-04-25T12:29:32;13.80;;;2.20;;
73456;SDS011;61691;53.072;6.582;2023-04-25T12:32:15;14.80;;;2.10;;
73456;SDS011;61691;53.072;6.582;2023-04-25T12:34:43;13.95;;;2.30;;
73456;SDS011;61691;53.072;6.582;2023-04-25T12:37:09;11.45;;;2.03;;
73456;SDS011;61691;53.072;6.582;2023-04-25T12:39:36;12.75;;;2.47;;
73456;SDS011;61691;53.072;6.582;2023-04-25T12:42:03;14.75;;;2.30;;
73456;SDS011;61691;53.072;6.582;2023-04-25T12:44:34;20.90;;;2.50;;
73456;SDS011;61691;53.072;6.582;2023-04-25T12:47:01;13.93;;;2.33;;
73456;SDS011;61691;53.072;6.582;2023-04-25T12:49:29;12.60;;;2.10;;
73456;SDS011;61691;53.072;6.582;2023-04-25T12:51:56;15.30;;;2.50;;
73456;SDS011;61691;53.072;6.582;2023-04-25T12:54:23;15.35;;;2.38;;
73456;SDS011;61691;53.072;6.582;2023-04-25T12:56:50;14.57;;;2.38;;
73456;SDS011;61691;53.072;6.582;2023-04-25T12:59:17;13.65;;;2.03;;
73456;SDS011;61691;53.072;6.582;2023-04-25T13:01:44;14.30;;;2.30;;
73456;SDS011;61691;53.072;6.582;2023-04-25T13:04:11;25.05;;;2.42;;
73456;SDS011;61691;53.072;6.582;2023-04-25T13:06:39;15.90;;;2.28;;
73456;SDS011;61691;53.072;6.582;2023-04-25T13:09:05;15.60;;;2.30;;
73456;SDS011;61691;53.072;6.582;2023-04-25T13:11:33;12.15;;;2.30;;
73456;SDS011;61691;53.072;6.582;2023-04-25T13:14:00;14.82;;;2.70;;
73456;SDS011;61691;53.072;6.582;2023-04-25T13:16:27;15.00;;;2.00;;
73456;SDS011;61691;53.072;6.582;2023-04-25T13:18:54;15.13;;;2.13;;
73456;SDS011;61691;53.072;6.582;2023-04-25T13:21:22;14.60;;;1.98;;
73456;SDS011;61691;53.072;6.582;2023-04-25T13:23:49;15.80;;;2.38;;
73456;SDS011;61691;53.072;6.582;2023-04-25T13:26:17;11.77;;;1.75;;
73456;SDS011;61691;53.072;6.582;2023-04-25T13:28:44;16.30;;;2.53;;
73456;SDS011;61691;53.072;6.582;2023-04-25T13:31:11;15.32;;;1.90;;
73456;SDS011;61691;53.072;6.582;2023-04-25T13:33:38;13.20;;;1.90;;
73456;SDS011;61691;53.072;6.582;2023-04-25T13:36:04;12.55;;;2.08;;
73456;SDS011;61691;53.072;6.582;2023-04-25T13:38:32;14.52;;;2.10;;
73456;SDS011;61691;53.072;6.582;2023-04-25T13:40:58;16.83;;;2.63;;
73456;SDS011;61691;53.072;6.582;2023-04-25T13:43:25;11.70;;;2.13;;
73456;SDS011;61691;53.072;6.582;2023-04-25T13:45:52;14.60;;;2.50;;
73456;SDS011;61691;53.072;6.582;2023-04-25T13:48:19;12.52;;;2.42;;
73456;SDS011;61691;53.072;6.582;2023-04-25T13:50:46;16.90;;;2.70;;
73456;SDS011;61691;53.072;6.582;2023-04-25T13:53:13;14.73;;;2.25;;
73456;SDS011;61691;53.072;6.582;2023-04-25T13:55:40;16.52;;;2.15;;
73456;SDS011;61691;53.072;6.582;2023-04-25T13:58:06;14.98;;;2.33;;
73456;SDS011;61691;53.072;6.582;2023-04-25T14:00:38;18.60;;;2.65;;
73456;SDS011;61691;53.072;6.582;2023-04-25T14:03:06;11.30;;;1.83;;
73456;SDS011;61691;53.072;6.582;2023-04-25T14:05:34;11.60;;;1.80;;
73456;SDS011;61691;53.072;6.582;2023-04-25T14:08:07;11.52;;;1.95;;
73456;SDS011;61691;53.072;6.582;2023-04-25T14:10:34;14.18;;;2.10;;
73456;SDS011;61691;53.072;6.582;2023-04-25T14:13:02;12.07;;;1.80;;
73456;SDS011;61691;53.072;6.582;2023-04-25T14:15:31;17.95;;;4.03;;
73456;SDS011;61691;53.072;6.582;2023-04-25T14:17:58;10.68;;;1.95;;
73456;SDS011;61691;53.072;6.582;2023-04-25T14:20:26;12.43;;;2.30;;
73456;SDS011;61691;53.072;6.582;2023-04-25T14:22:53;16.27;;;2.88;;
73456;SDS011;61691;53.072;6.582;2023-04-25T14:25:22;12.20;;;2.13;;
73456;SDS011;61691;53.072;6.582;2023-04-25T14:27:49;17.13;;;2.60;;
73456;SDS011;61691;53.072;6.582;2023-04-25T14:30:17;15.38;;;2.65;;
73456;SDS011;61691;53.072;6.582;2023-04-25T14:32:44;16.73;;;2.25;;
73456;SDS011;61691;53.072;6.582;2023-04-25T14:35:12;10.82;;;1.88;;
73456;SDS011;61691;53.072;6.582;2023-04-25T14:37:39;12.93;;;2.13;;
73456;SDS011;61691;53.072;6.582;2023-04-25T14:40:06;12.27;;;1.95;;
73456;SDS011;61691;53.072;6.582;2023-04-25T14:42:38;16.40;;;2.20;;
73456;SDS011;61691;53.072;6.582;2023-04-25T14:45:06;17.02;;;2.55;;
73456;SDS011;61691;53.072;6.582;2023-04-25T14:47:38;14.70;;;2.20;;
73456;SDS011;61691;53.072;6.582;2023-04-25T14:50:05;13.95;;;2.47;;
73456;SDS011;61691;53.072;6.582;2023-04-25T14:52:33;16.27;;;2.40;;
73456;SDS011;61691;53.072;6.582;2023-04-25T14:54:59;19.20;;;2.55;;
73456;SDS011;61691;53.072;6.582;2023-04-25T14:57:31;15.63;;;2.30;;
73456;SDS011;61691;53.072;6.582;2023-04-25T14:59:59;16.00;;;2.72;;